createdAt,value
2022-10-26T00:00:34.439Z,14.00
2022-10-26T00:03:03.669Z,14.00
2022-10-26T00:05:34.357Z,14.00
2022-10-26T00:08:02.543Z,14.00
2022-10-26T00:10:31.714Z,13.90
2022-10-26T00:12:59.829Z,13.90
2022-10-26T00:15:27.794Z,13.90
2022-10-26T00:17:55.717Z,13.90
2022-10-26T00:20:24.965Z,13.90
2022-10-26T00:22:52.817Z,13.90
2022-10-26T00:25:20.730Z,13.90
2022-10-26T00:27:48.870Z,13.90
2022-10-26T00:30:17.160Z,13.90
2022-10-26T00:32:45.018Z,13.90
2022-10-26T00:35:23.025Z,14.00
2022-10-26T00:37:57.093Z,14.00
2022-10-26T00:40:29.581Z,14.00
2022-10-26T00:42:57.482Z,14.00
2022-10-26T00:45:27.792Z,14.00
2022-10-26T00:47:59.386Z,14.00
2022-10-26T00:50:31.912Z,14.00
2022-10-26T00:53:03.753Z,14.00
2022-10-26T00:55:34.810Z,14.00
2022-10-26T00:58:05.348Z,14.00
2022-10-26T01:00:33.368Z,14.00
2022-10-26T01:03:05.788Z,14.00
2022-10-26T01:05:35.589Z,14.00
2022-10-26T01:08:05.213Z,14.00
2022-10-26T01:10:33.639Z,14.00
2022-10-26T01:13:02.115Z,14.00
2022-10-26T01:15:37.111Z,14.00
2022-10-26T01:18:14.213Z,14.00
2022-10-26T01:21:18.520Z,14.00
2022-10-26T01:24:06.324Z,14.00
2022-10-26T01:27:05.245Z,14.10
2022-10-26T01:30:02.269Z,14.10
2022-10-26T01:32:36.312Z,14.10
2022-10-26T01:35:10.127Z,14.10
2022-10-26T01:37:42.570Z,14.10
2022-10-26T01:40:17.468Z,14.20
2022-10-26T01:42:52.279Z,14.20
2022-10-26T01:45:20.651Z,14.20
2022-10-26T01:47:51.130Z,14.20
2022-10-26T01:50:20.459Z,14.20
2022-10-26T01:52:50.722Z,14.20
2022-10-26T01:55:44.352Z,14.20
2022-10-26T01:58:33.041Z,14.20
2022-10-26T02:01:08.033Z,14.20
2022-10-26T02:03:46.664Z,14.20
2022-10-26T02:06:21.222Z,14.20
2022-10-26T02:08:59.394Z,14.20
2022-10-26T02:11:40.708Z,14.30
2022-10-26T02:14:19.363Z,14.30
2022-10-26T02:16:56.294Z,14.30
2022-10-26T02:19:35.006Z,14.30
2022-10-26T02:22:10.877Z,14.30
2022-10-26T02:24:40.745Z,14.30
2022-10-26T02:27:14.455Z,14.30
2022-10-26T02:29:43.734Z,14.30
2022-10-26T02:32:13.128Z,14.30
2022-10-26T02:34:46.015Z,14.40
2022-10-26T02:37:16.601Z,14.40
2022-10-26T02:39:46.459Z,14.40
2022-10-26T02:42:15.384Z,14.40
2022-10-26T02:44:47.098Z,14.40
2022-10-26T02:47:15.119Z,14.40
2022-10-26T02:49:44.818Z,14.40
2022-10-26T02:52:19.669Z,14.40
2022-10-26T02:54:54.845Z,14.40
2022-10-26T02:57:28.749Z,14.50
2022-10-26T02:59:58.230Z,14.40
2022-10-26T03:02:26.484Z,14.50
2022-10-26T03:04:57.228Z,14.50
2022-10-26T03:07:25.234Z,14.50
2022-10-26T03:09:53.078Z,14.50
2022-10-26T03:12:20.995Z,14.50
2022-10-26T03:14:48.839Z,14.50
2022-10-26T03:17:16.708Z,14.50
2022-10-26T03:19:44.517Z,14.50
2022-10-26T03:22:13.715Z,14.50
2022-10-26T03:24:41.733Z,14.50
2022-10-26T03:27:09.570Z,14.50
2022-10-26T03:29:37.398Z,14.50
2022-10-26T03:32:05.673Z,14.60
2022-10-26T03:34:33.475Z,14.60
2022-10-26T03:37:01.602Z,14.60
2022-10-26T03:39:30.772Z,14.60
2022-10-26T03:41:59.389Z,14.60
2022-10-26T03:44:27.247Z,14.60
2022-10-26T03:46:55.159Z,14.70
2022-10-26T03:49:23.027Z,14.70
2022-10-26T03:51:50.958Z,14.70
2022-10-26T03:54:19.418Z,14.70
2022-10-26T03:56:52.596Z,14.70
2022-10-26T03:59:23.046Z,14.70
2022-10-26T04:01:54.048Z,14.70
2022-10-26T04:04:24.976Z,14.70
2022-10-26T04:06:53.034Z,14.70
2022-10-26T04:09:20.936Z,14.70
2022-10-26T04:11:50.124Z,14.70
2022-10-26T04:14:17.961Z,14.80
2022-10-26T04:16:45.802Z,14.80
2022-10-26T04:19:13.643Z,14.80
2022-10-26T04:21:41.659Z,14.80
2022-10-26T04:24:10.903Z,14.80
2022-10-26T04:26:38.792Z,14.80
2022-10-26T04:29:09.338Z,14.90
2022-10-26T04:31:37.372Z,14.90
2022-10-26T04:34:05.382Z,14.90
2022-10-26T04:36:34.454Z,14.90
2022-10-26T04:39:02.344Z,14.90
2022-10-26T04:41:30.193Z,14.90
2022-10-26T04:43:58.766Z,14.90
2022-10-26T04:46:27.976Z,14.80
2022-10-26T04:48:55.807Z,14.80
2022-10-26T04:51:23.650Z,14.80
2022-10-26T04:53:51.482Z,14.80
2022-10-26T04:56:19.362Z,14.90
2022-10-26T04:58:47.353Z,14.90
2022-10-26T05:01:15.361Z,14.90
2022-10-26T05:03:44.556Z,14.90
2022-10-26T05:06:12.437Z,14.90
2022-10-26T05:08:40.332Z,14.90
2022-10-26T05:11:08.194Z,14.90
2022-10-26T05:13:36.256Z,15.00
2022-10-26T05:16:04.202Z,14.90
2022-10-26T05:18:32.156Z,15.00
2022-10-26T05:21:01.533Z,15.00
2022-10-26T05:23:29.378Z,15.00
2022-10-26T05:25:57.813Z,15.00
2022-10-26T05:28:25.762Z,15.00
2022-10-26T05:30:53.823Z,15.00
2022-10-26T05:33:22.042Z,15.00
2022-10-26T05:35:49.900Z,15.10
2022-10-26T05:38:19.501Z,15.10
2022-10-26T05:40:50.891Z,15.10
2022-10-26T05:43:19.675Z,15.10
2022-10-26T05:45:47.544Z,15.20
2022-10-26T05:48:15.347Z,15.20
2022-10-26T05:50:43.267Z,15.20
2022-10-26T05:53:11.169Z,15.20
2022-10-26T05:55:41.401Z,15.20
2022-10-26T05:58:12.084Z,15.20
2022-10-26T06:00:48.705Z,15.20
2022-10-26T06:06:03.988Z,15.30
2022-10-26T06:08:35.084Z,15.20
2022-10-26T06:11:04.989Z,15.30
2022-10-26T06:13:33.515Z,15.30
2022-10-26T06:16:20.807Z,15.30
2022-10-26T06:18:59.665Z,15.30
2022-10-26T06:21:42.849Z,15.30
2022-10-26T06:24:17.141Z,15.30
2022-10-26T06:26:55.228Z,15.20
2022-10-26T06:29:32.980Z,15.30
2022-10-26T06:32:01.079Z,15.30
2022-10-26T06:34:34.259Z,15.20
2022-10-26T06:37:03.063Z,15.30
2022-10-26T06:39:36.798Z,15.30
2022-10-26T06:42:07.124Z,15.30
2022-10-26T06:44:35.700Z,15.30
2022-10-26T06:47:08.057Z,15.30
2022-10-26T06:49:40.203Z,15.30
2022-10-26T06:52:16.700Z,15.30
2022-10-26T06:54:49.866Z,15.40
2022-10-26T06:57:21.695Z,15.40
2022-10-26T06:59:53.170Z,15.40
2022-10-26T07:02:21.696Z,15.40
2022-10-26T07:04:49.819Z,15.40
2022-10-26T07:07:20.862Z,15.40
2022-10-26T07:09:48.770Z,15.50
2022-10-26T07:12:16.992Z,15.50
2022-10-26T07:14:46.241Z,15.50
2022-10-26T07:17:14.187Z,15.50
2022-10-26T07:19:44.607Z,15.50
2022-10-26T07:22:12.667Z,15.50
2022-10-26T07:24:41.613Z,15.50
2022-10-26T07:27:09.523Z,15.60
2022-10-26T07:29:37.413Z,15.60
2022-10-26T07:32:07.361Z,15.60
2022-10-26T07:34:35.471Z,15.60
2022-10-26T07:37:03.411Z,15.70
2022-10-26T07:39:32.657Z,15.70
2022-10-26T07:42:00.540Z,15.80
2022-10-26T07:44:28.383Z,15.80
2022-10-26T07:46:56.271Z,15.90
2022-10-26T07:49:27.707Z,16.00
2022-10-26T07:51:56.024Z,16.10
2022-10-26T07:54:23.816Z,16.20
2022-10-26T07:56:51.744Z,16.30
2022-10-26T07:59:19.731Z,16.30
2022-10-26T08:01:47.745Z,16.40
2022-10-26T08:04:16.122Z,16.50
2022-10-26T08:06:45.344Z,16.60
2022-10-26T08:09:13.231Z,16.80
2022-10-26T08:11:41.082Z,16.90
2022-10-26T08:14:08.908Z,17.10
2022-10-26T08:16:39.809Z,17.20
2022-10-26T08:19:08.614Z,17.30
2022-10-26T08:21:40.136Z,17.40
2022-10-26T08:24:09.978Z,17.50
2022-10-26T08:26:37.940Z,17.60
2022-10-26T08:29:06.241Z,17.80
2022-10-26T08:31:34.449Z,17.90
2022-10-26T08:34:03.965Z,18.00
2022-10-26T08:36:32.002Z,18.00
2022-10-26T08:41:37.128Z,18.20
2022-10-26T08:44:13.348Z,18.30
2022-10-26T08:46:45.556Z,18.40
2022-10-26T08:49:20.360Z,18.60
2022-10-26T08:51:51.380Z,18.60
2022-10-26T08:54:24.478Z,18.50
2022-10-26T08:56:58.442Z,18.40
2022-10-26T08:59:31.824Z,18.30
2022-10-26T09:02:01.828Z,18.20
2022-10-26T09:04:31.296Z,18.20
2022-10-26T09:07:09.542Z,18.20
2022-10-26T09:09:54.109Z,18.20
2022-10-26T09:12:35.529Z,18.10
2022-10-26T09:15:15.347Z,18.00
2022-10-26T09:17:50.655Z,18.20
2022-10-26T09:20:43.890Z,18.30
2022-10-26T09:23:23.955Z,18.30
2022-10-26T09:25:58.954Z,18.20
2022-10-26T09:28:31.245Z,18.30
2022-10-26T09:31:00.638Z,18.30
2022-10-26T09:33:32.197Z,18.30
2022-10-26T09:36:03.164Z,18.40
2022-10-26T09:38:33.137Z,18.50
2022-10-26T09:41:05.004Z,18.70
2022-10-26T09:43:42.401Z,18.90
2022-10-26T09:46:15.463Z,19.00
2022-10-26T09:48:49.349Z,19.10
2022-10-26T09:51:17.714Z,19.20
2022-10-26T09:53:45.615Z,19.30
2022-10-26T09:56:14.858Z,19.40
2022-10-26T09:58:46.757Z,19.40
2022-10-26T10:01:35.347Z,19.50
2022-10-26T10:04:28.654Z,19.50
2022-10-26T10:07:14.723Z,19.60
2022-10-26T10:09:42.578Z,19.60
2022-10-26T10:12:20.701Z,19.60
2022-10-26T10:15:01.335Z,19.70
2022-10-26T10:17:32.268Z,19.70
2022-10-26T10:20:12.692Z,19.80
2022-10-26T10:22:55.313Z,19.90
2022-10-26T10:25:35.441Z,20.00
2022-10-26T10:28:04.167Z,20.00
2022-10-26T10:30:36.069Z,20.10
2022-10-26T10:33:08.579Z,20.20
2022-10-26T10:35:37.026Z,20.40
2022-10-26T10:38:05.377Z,20.50
2022-10-26T10:40:33.643Z,20.50
2022-10-26T10:43:07.578Z,20.60
2022-10-26T10:45:37.270Z,20.70
2022-10-26T10:48:14.768Z,20.70
2022-10-26T10:50:53.979Z,20.90
2022-10-26T10:53:27.321Z,21.10
2022-10-26T10:56:21.831Z,21.20
2022-10-26T10:59:02.778Z,21.20
2022-10-26T11:01:40.678Z,21.20
2022-10-26T11:04:34.335Z,21.30
2022-10-26T11:07:04.848Z,21.50
2022-10-26T11:09:35.178Z,21.70
2022-10-26T11:12:09.650Z,21.80
2022-10-26T11:14:45.183Z,22.00
2022-10-26T11:17:21.343Z,22.20
2022-10-26T11:19:55.585Z,22.50
2022-10-26T11:22:28.879Z,22.70
2022-10-26T11:25:01.223Z,22.90
2022-10-26T11:27:34.998Z,23.40
2022-10-26T11:30:07.231Z,24.50
2022-10-26T11:32:42.667Z,24.90
2022-10-26T11:35:15.570Z,24.80
2022-10-26T11:37:50.769Z,24.60
2022-10-26T11:40:27.421Z,24.50
2022-10-26T11:43:02.945Z,24.80
2022-10-26T11:45:33.636Z,25.20
2022-10-26T11:48:07.922Z,25.50
2022-10-26T11:50:41.520Z,25.80
2022-10-26T11:53:14.622Z,25.50
2022-10-26T11:55:43.311Z,24.80
2022-10-26T11:58:12.770Z,24.40
2022-10-26T12:00:54.601Z,24.30
2022-10-26T12:03:28.373Z,23.90
2022-10-26T12:05:56.450Z,24.30
2022-10-26T12:08:33.010Z,24.40
2022-10-26T12:11:14.093Z,24.60
2022-10-26T12:13:50.032Z,24.60
2022-10-26T12:16:25.502Z,24.50
2022-10-26T12:19:00.548Z,24.80
2022-10-26T12:21:30.850Z,25.00
2022-10-26T12:24:00.383Z,25.10
2022-10-26T12:26:53.484Z,25.30
2022-10-26T12:29:38.237Z,25.40
2022-10-26T12:32:50.658Z,25.30
2022-10-26T12:35:35.792Z,25.40
2022-10-26T12:38:19.355Z,25.50
2022-10-26T12:40:47.674Z,25.00
2022-10-26T12:43:34.430Z,24.40
2022-10-26T12:46:45.245Z,24.10
2022-10-26T12:50:00.694Z,23.90
2022-10-26T12:52:49.436Z,23.70
2022-10-26T12:55:49.157Z,23.40
2022-10-26T12:58:55.135Z,23.30
2022-10-26T13:01:46.790Z,24.30
2022-10-26T13:04:29.643Z,25.40
2022-10-26T13:07:16.127Z,26.10
2022-10-26T13:09:50.082Z,26.00
2022-10-26T13:12:18.032Z,26.00
2022-10-26T13:15:01.280Z,25.90
2022-10-26T13:17:31.737Z,25.90
2022-10-26T13:20:02.136Z,25.90
2022-10-26T13:22:30.951Z,25.90
2022-10-26T13:25:02.397Z,26.10
2022-10-26T13:27:46.461Z,26.50
2022-10-26T13:30:38.606Z,26.70
2022-10-26T13:33:13.230Z,26.90
2022-10-26T13:35:42.898Z,27.10
2022-10-26T13:38:13.272Z,27.30
2022-10-26T13:40:42.743Z,27.30
2022-10-26T13:43:20.552Z,27.30
2022-10-26T13:45:54.917Z,27.20
2022-10-26T13:48:32.120Z,27.40
2022-10-26T13:51:03.929Z,27.70
2022-10-26T13:53:41.339Z,27.60
2022-10-26T13:56:20.619Z,27.60
2022-10-26T13:58:53.378Z,27.50
2022-10-26T14:01:23.039Z,27.40
2022-10-26T14:03:51.758Z,27.10
2022-10-26T14:06:25.630Z,26.90
2022-10-26T14:08:56.396Z,26.50
2022-10-26T14:11:33.023Z,26.30
2022-10-26T14:14:01.637Z,26.30
2022-10-26T14:16:33.007Z,26.20
2022-10-26T14:19:01.387Z,25.90
2022-10-26T14:21:29.458Z,26.00
2022-10-26T14:23:59.332Z,26.30
2022-10-26T14:26:30.602Z,26.20
2022-10-26T14:28:59.828Z,26.10
2022-10-26T14:31:29.722Z,25.70
2022-10-26T14:33:59.632Z,25.40
2022-10-26T14:36:31.980Z,25.20
2022-10-26T14:39:03.052Z,25.00
2022-10-26T14:41:35.662Z,25.00
2022-10-26T14:44:04.202Z,24.90
2022-10-26T14:46:36.202Z,24.90
2022-10-26T14:49:05.022Z,24.90
2022-10-26T14:51:36.597Z,25.00
2022-10-26T14:54:05.614Z,24.90
2022-10-26T14:56:41.694Z,24.80
2022-10-26T14:59:14.141Z,24.70
2022-10-26T15:01:50.761Z,24.50
2022-10-26T15:04:32.789Z,24.40
2022-10-26T15:07:09.845Z,24.30
2022-10-26T15:09:44.160Z,24.20
2022-10-26T15:12:29.811Z,24.10
2022-10-26T15:15:06.332Z,24.00
2022-10-26T15:17:39.211Z,23.90
2022-10-26T15:20:09.064Z,23.70
2022-10-26T15:22:44.563Z,23.60
2022-10-26T15:25:20.522Z,23.60
2022-10-26T15:27:51.422Z,23.60
2022-10-26T15:30:23.496Z,23.50
2022-10-26T15:32:53.823Z,23.30
2022-10-26T15:35:30.224Z,23.30
2022-10-26T15:37:59.293Z,23.20
2022-10-26T15:40:29.015Z,23.10
2022-10-26T15:43:01.526Z,23.00
2022-10-26T15:45:32.918Z,22.80
2022-10-26T15:48:12.738Z,22.70
2022-10-26T15:50:41.384Z,22.60
2022-10-26T15:53:23.163Z,22.50
2022-10-26T15:55:53.627Z,22.40
2022-10-26T15:58:23.403Z,22.20
2022-10-26T16:00:51.375Z,22.10
2022-10-26T16:03:22.349Z,22.00
2022-10-26T16:05:56.381Z,22.00
2022-10-26T16:08:24.295Z,21.80
2022-10-26T16:10:52.098Z,21.60
2022-10-26T16:13:19.937Z,21.60
2022-10-26T16:15:49.735Z,21.50
2022-10-26T16:18:17.575Z,21.40
2022-10-26T16:20:47.263Z,21.40
2022-10-26T16:23:15.338Z,21.30
2022-10-26T16:25:45.120Z,21.20
2022-10-26T16:28:15.148Z,21.10
2022-10-26T16:30:43.056Z,21.10
2022-10-26T16:33:12.443Z,21.00
2022-10-26T16:35:40.347Z,20.90
2022-10-26T16:38:08.215Z,20.90
2022-10-26T16:40:36.027Z,20.80
2022-10-26T16:43:03.857Z,20.80
2022-10-26T16:45:31.779Z,20.80
2022-10-26T16:47:59.664Z,20.80
2022-10-26T16:50:29.982Z,20.80
2022-10-26T16:52:58.644Z,20.70
2022-10-26T16:55:26.622Z,20.70
2022-10-26T16:57:54.675Z,20.60
2022-10-26T17:00:30.349Z,20.60
2022-10-26T17:03:00.173Z,20.70
2022-10-26T17:05:29.656Z,20.60
2022-10-26T17:07:57.535Z,20.60
2022-10-26T17:10:27.820Z,20.50
2022-10-26T17:12:56.798Z,20.50
2022-10-26T17:15:28.906Z,20.50
2022-10-26T17:17:57.079Z,20.50
2022-10-26T17:20:25.006Z,20.50
2022-10-26T17:22:54.219Z,20.50
2022-10-26T17:25:22.095Z,20.50
2022-10-26T17:27:49.897Z,20.50
2022-10-26T17:30:17.987Z,20.50
2022-10-26T17:32:45.846Z,20.50
2022-10-26T17:35:16.658Z,20.60
2022-10-26T17:37:44.656Z,20.50
2022-10-26T17:40:14.024Z,20.50
2022-10-26T17:42:41.923Z,20.50
2022-10-26T17:45:10.755Z,20.50
2022-10-26T17:47:38.611Z,20.50
2022-10-26T17:50:07.465Z,20.50
2022-10-26T17:52:35.386Z,20.50
2022-10-26T17:55:03.413Z,20.40
2022-10-26T17:57:33.287Z,20.50
2022-10-26T18:00:01.440Z,20.40
2022-10-26T18:02:29.827Z,20.40
2022-10-26T18:04:57.848Z,20.40
2022-10-26T18:07:25.771Z,20.40
2022-10-26T18:09:53.810Z,20.30
2022-10-26T18:12:22.090Z,20.30
2022-10-26T18:14:51.273Z,20.20
2022-10-26T18:17:19.132Z,20.10
2022-10-26T18:19:47.038Z,20.10
2022-10-26T18:22:14.917Z,20.00
2022-10-26T18:24:42.778Z,20.00
2022-10-26T18:27:10.668Z,19.90
2022-10-26T18:29:39.813Z,19.90
2022-10-26T18:32:09.285Z,19.90
2022-10-26T18:34:38.398Z,19.80
2022-10-26T18:37:06.256Z,19.80
2022-10-26T18:39:34.134Z,19.80
2022-10-26T18:42:02.021Z,19.70
2022-10-26T18:44:29.937Z,19.70
2022-10-26T18:47:08.388Z,19.70
2022-10-26T18:50:10.536Z,19.70
2022-10-26T18:52:41.573Z,19.60
2022-10-26T18:55:12.987Z,19.60
2022-10-26T18:57:43.027Z,19.70
2022-10-26T19:00:29.921Z,19.70
2022-10-26T19:06:10.219Z,19.70
2022-10-26T19:08:38.655Z,19.70
2022-10-26T19:11:07.842Z,19.60
2022-10-26T19:13:35.882Z,19.50
2022-10-26T19:16:09.633Z,19.50
2022-10-26T19:18:44.935Z,19.50
2022-10-26T19:21:16.694Z,19.50
2022-10-26T19:23:48.751Z,19.40
2022-10-26T19:26:18.712Z,19.30
2022-10-26T19:28:47.488Z,19.40
2022-10-26T19:31:16.030Z,19.30
2022-10-26T19:33:46.847Z,19.30
2022-10-26T19:36:18.460Z,19.30
2022-10-26T19:38:46.438Z,19.20
2022-10-26T19:41:22.323Z,19.20
2022-10-26T19:43:50.796Z,19.20
2022-10-26T19:46:30.979Z,19.20
2022-10-26T19:49:00.479Z,19.10
2022-10-26T19:51:36.311Z,19.10
2022-10-26T19:54:06.230Z,19.00
2022-10-26T19:56:34.704Z,18.90
2022-10-26T19:59:05.185Z,18.90
2022-10-26T20:01:33.229Z,18.90
2022-10-26T20:04:04.901Z,18.80
2022-10-26T20:06:32.820Z,18.80
2022-10-26T20:09:02.943Z,18.70
2022-10-26T20:11:32.300Z,18.70
2022-10-26T20:14:03.424Z,18.70
2022-10-26T20:16:33.741Z,18.70
2022-10-26T20:19:05.779Z,18.70
2022-10-26T20:21:33.747Z,18.70
2022-10-26T20:24:05.632Z,18.70
2022-10-26T20:26:35.863Z,18.70
2022-10-26T20:29:09.231Z,18.60
2022-10-26T20:31:42.088Z,18.50
2022-10-26T20:34:10.688Z,18.50
2022-10-26T20:36:39.986Z,18.50
2022-10-26T20:39:12.324Z,18.50
2022-10-26T20:41:43.106Z,18.40
2022-10-26T20:44:23.278Z,18.40
2022-10-26T20:46:51.951Z,18.40
2022-10-26T20:49:20.285Z,18.40
2022-10-26T20:52:20.612Z,18.30
2022-10-26T20:55:01.126Z,18.30
2022-10-26T20:57:42.978Z,18.20
2022-10-26T21:00:12.890Z,18.10
2022-10-26T21:02:53.246Z,18.10
2022-10-26T21:05:23.308Z,18.00
2022-10-26T21:07:51.298Z,17.90
2022-10-26T21:10:31.962Z,17.90
2022-10-26T21:12:59.831Z,17.90
2022-10-26T21:15:29.268Z,17.90
2022-10-26T21:17:57.182Z,17.90
2022-10-26T21:20:25.014Z,17.90
2022-10-26T21:22:53.526Z,17.90
2022-10-26T21:25:22.767Z,17.90
2022-10-26T21:27:55.702Z,17.90
2022-10-26T21:30:23.690Z,17.90
2022-10-26T21:32:52.380Z,17.90
2022-10-26T21:35:20.519Z,17.80
2022-10-26T21:37:48.855Z,17.90
2022-10-26T21:40:17.319Z,17.80
2022-10-26T21:42:52.114Z,17.80
2022-10-26T21:45:20.453Z,17.80
2022-10-26T21:47:52.780Z,17.80
2022-10-26T21:50:24.012Z,17.80
2022-10-26T21:52:53.962Z,17.80
2022-10-26T21:55:21.865Z,17.80
2022-10-26T21:57:53.608Z,17.80
2022-10-26T22:00:21.531Z,17.70
2022-10-26T22:02:49.704Z,17.70
2022-10-26T22:05:17.684Z,17.60
2022-10-26T22:07:45.561Z,17.50
2022-10-26T22:10:13.415Z,17.50
2022-10-26T22:12:41.241Z,17.30
2022-10-26T22:15:11.343Z,17.20
2022-10-26T22:17:39.754Z,17.30
2022-10-26T22:20:09.803Z,17.40
2022-10-26T22:22:37.740Z,17.30
2022-10-26T22:25:06.971Z,17.30
2022-10-26T22:27:34.935Z,17.20
2022-10-26T22:30:02.778Z,17.10
2022-10-26T22:32:31.958Z,17.10
2022-10-26T22:35:10.787Z,17.10
2022-10-26T22:37:45.582Z,17.10
2022-10-26T22:40:13.787Z,17.20
2022-10-26T22:42:41.642Z,17.20
2022-10-26T22:45:10.311Z,17.30
2022-10-26T22:47:39.511Z,17.30
2022-10-26T22:50:07.902Z,17.40
2022-10-26T22:52:36.259Z,17.30
2022-10-26T22:55:04.274Z,17.30
2022-10-26T22:57:32.187Z,17.20
2022-10-26T23:00:00.000Z,17.20
2022-10-26T23:02:27.882Z,17.10
2022-10-26T23:04:57.111Z,17.10
2022-10-26T23:07:26.081Z,17.10
2022-10-26T23:09:54.057Z,17.10
2022-10-26T23:12:21.859Z,17.10
2022-10-26T23:14:49.719Z,17.10
2022-10-26T23:17:17.587Z,17.10
2022-10-26T23:19:45.414Z,17.10
2022-10-26T23:22:14.701Z,16.90
2022-10-26T23:24:42.598Z,16.90
2022-10-26T23:27:10.521Z,16.90
2022-10-26T23:29:38.402Z,16.80
2022-10-26T23:32:06.490Z,16.80
2022-10-26T23:34:34.335Z,16.80
2022-10-26T23:37:02.162Z,16.80
2022-10-26T23:39:31.656Z,16.80
2022-10-26T23:41:59.519Z,16.80
2022-10-26T23:44:27.342Z,16.80
2022-10-26T23:46:55.286Z,16.80
2022-10-26T23:49:23.144Z,16.80
2022-10-26T23:51:50.973Z,16.80
2022-10-26T23:54:19.268Z,16.80
2022-10-26T23:56:48.472Z,16.80
2022-10-26T23:59:16.390Z,16.80
